sensor_id;sensor_type;location;lat;lon;timestamp;P1;durP1;ratioP1;P2;durP2;ratioP2
17696;SDS011;8967;47.984;7.842;2022-11-06T00:00:17;3.70;;;2.00;;
17696;SDS011;8967;47.984;7.842;2022-11-06T00:02:44;4.87;;;2.30;;
17696;SDS011;8967;47.984;7.842;2022-11-06T00:05:11;3.53;;;2.07;;
17696;SDS011;8967;47.984;7.842;2022-11-06T00:07:57;4.07;;;2.23;;
17696;SDS011;8967;47.984;7.842;2022-11-06T00:10:24;2.70;;;2.10;;
17696;SDS011;8967;47.984;7.842;2022-11-06T00:12:51;4.37;;;2.20;;
17696;SDS011;8967;47.984;7.842;2022-11-06T00:15:21;5.95;;;2.05;;
17696;SDS011;8967;47.984;7.842;2022-11-06T00:17:48;2.50;;;2.07;;
17696;SDS011;8967;47.984;7.842;2022-11-06T00:20:15;2.13;;;1.90;;
17696;SDS011;8967;47.984;7.842;2022-11-06T00:22:42;1.63;;;1.53;;
17696;SDS011;8967;47.984;7.842;2022-11-06T00:25:13;4.87;;;1.83;;
17696;SDS011;8967;47.984;7.842;2022-11-06T00:27:40;2.53;;;1.90;;
17696;SDS011;8967;47.984;7.842;2022-11-06T00:30:09;6.40;;;1.77;;
17696;SDS011;8967;47.984;7.842;2022-11-06T00:32:36;4.73;;;2.00;;
17696;SDS011;8967;47.984;7.842;2022-11-06T00:35:04;8.07;;;1.70;;
17696;SDS011;8967;47.984;7.842;2022-11-06T00:37:32;2.10;;;1.67;;
17696;SDS011;8967;47.984;7.842;2022-11-06T00:39:59;2.75;;;1.58;;
17696;SDS011;8967;47.984;7.842;2022-11-06T00:42:28;3.07;;;1.40;;
17696;SDS011;8967;47.984;7.842;2022-11-06T00:44:55;4.90;;;1.57;;
17696;SDS011;8967;47.984;7.842;2022-11-06T00:47:24;2.50;;;1.57;;
17696;SDS011;8967;47.984;7.842;2022-11-06T00:49:52;3.22;;;2.17;;
17696;SDS011;8967;47.984;7.842;2022-11-06T00:52:19;2.30;;;1.57;;
17696;SDS011;8967;47.984;7.842;2022-11-06T00:54:46;2.13;;;1.50;;
17696;SDS011;8967;47.984;7.842;2022-11-06T00:57:12;2.77;;;1.57;;
17696;SDS011;8967;47.984;7.842;2022-11-06T00:59:41;1.97;;;1.70;;
17696;SDS011;8967;47.984;7.842;2022-11-06T01:02:10;4.90;;;1.80;;
17696;SDS011;8967;47.984;7.842;2022-11-06T01:04:37;2.37;;;1.90;;
17696;SDS011;8967;47.984;7.842;2022-11-06T01:07:03;4.10;;;1.80;;
17696;SDS011;8967;47.984;7.842;2022-11-06T01:09:30;2.50;;;2.10;;
17696;SDS011;8967;47.984;7.842;2022-11-06T01:11:58;2.97;;;1.90;;
17696;SDS011;8967;47.984;7.842;2022-11-06T01:14:25;4.43;;;1.97;;
17696;SDS011;8967;47.984;7.842;2022-11-06T01:16:54;3.50;;;1.90;;
17696;SDS011;8967;47.984;7.842;2022-11-06T01:19:21;4.43;;;1.83;;
17696;SDS011;8967;47.984;7.842;2022-11-06T01:21:49;2.77;;;1.60;;
17696;SDS011;8967;47.984;7.842;2022-11-06T01:24:18;3.77;;;1.87;;
17696;SDS011;8967;47.984;7.842;2022-11-06T01:26:47;6.10;;;2.40;;
17696;SDS011;8967;47.984;7.842;2022-11-06T01:29:15;2.47;;;1.80;;
17696;SDS011;8967;47.984;7.842;2022-11-06T01:31:46;4.20;;;2.30;;
17696;SDS011;8967;47.984;7.842;2022-11-06T01:34:16;2.77;;;2.23;;
17696;SDS011;8967;47.984;7.842;2022-11-06T01:36:43;5.70;;;2.50;;
17696;SDS011;8967;47.984;7.842;2022-11-06T01:39:11;2.97;;;1.97;;
17696;SDS011;8967;47.984;7.842;2022-11-06T01:41:41;3.30;;;2.30;;
17696;SDS011;8967;47.984;7.842;2022-11-06T01:47:18;4.13;;;2.20;;
17696;SDS011;8967;47.984;7.842;2022-11-06T01:49:48;4.27;;;2.30;;
17696;SDS011;8967;47.984;7.842;2022-11-06T01:52:17;2.90;;;2.10;;
17696;SDS011;8967;47.984;7.842;2022-11-06T01:54:46;4.23;;;2.60;;
17696;SDS011;8967;47.984;7.842;2022-11-06T01:57:16;5.90;;;2.43;;
17696;SDS011;8967;47.984;7.842;2022-11-06T01:59:43;2.60;;;1.90;;
17696;SDS011;8967;47.984;7.842;2022-11-06T02:02:11;4.53;;;1.90;;
17696;SDS011;8967;47.984;7.842;2022-11-06T02:04:42;3.47;;;1.90;;
17696;SDS011;8967;47.984;7.842;2022-11-06T02:07:13;4.93;;;1.90;;
17696;SDS011;8967;47.984;7.842;2022-11-06T02:09:42;3.17;;;2.30;;
17696;SDS011;8967;47.984;7.842;2022-11-06T02:12:12;2.37;;;1.93;;
17696;SDS011;8967;47.984;7.842;2022-11-06T02:14:47;4.70;;;1.80;;
17696;SDS011;8967;47.984;7.842;2022-11-06T02:17:25;5.93;;;1.60;;
17696;SDS011;8967;47.984;7.842;2022-11-06T02:20:02;2.93;;;1.77;;
17696;SDS011;8967;47.984;7.842;2022-11-06T02:22:42;2.27;;;1.70;;
17696;SDS011;8967;47.984;7.842;2022-11-06T02:25:29;2.77;;;1.93;;
17696;SDS011;8967;47.984;7.842;2022-11-06T02:28:07;3.60;;;2.20;;
17696;SDS011;8967;47.984;7.842;2022-11-06T02:30:40;4.80;;;2.27;;
17696;SDS011;8967;47.984;7.842;2022-11-06T02:33:11;4.10;;;1.90;;
17696;SDS011;8967;47.984;7.842;2022-11-06T02:35:45;6.43;;;1.87;;
17696;SDS011;8967;47.984;7.842;2022-11-06T02:38:17;2.60;;;1.90;;
17696;SDS011;8967;47.984;7.842;2022-11-06T02:40:48;7.47;;;2.10;;
17696;SDS011;8967;47.984;7.842;2022-11-06T02:43:20;5.40;;;1.70;;
17696;SDS011;8967;47.984;7.842;2022-11-06T02:45:55;2.50;;;1.63;;
17696;SDS011;8967;47.984;7.842;2022-11-06T02:48:27;4.37;;;2.13;;
17696;SDS011;8967;47.984;7.842;2022-11-06T02:50:58;4.83;;;1.97;;
17696;SDS011;8967;47.984;7.842;2022-11-06T02:53:30;3.50;;;2.00;;
17696;SDS011;8967;47.984;7.842;2022-11-06T02:55:59;3.90;;;2.30;;
17696;SDS011;8967;47.984;7.842;2022-11-06T02:58:32;6.63;;;2.00;;
17696;SDS011;8967;47.984;7.842;2022-11-06T03:01:05;5.17;;;1.77;;
17696;SDS011;8967;47.984;7.842;2022-11-06T03:03:40;4.80;;;1.70;;
17696;SDS011;8967;47.984;7.842;2022-11-06T03:06:13;4.37;;;2.00;;
17696;SDS011;8967;47.984;7.842;2022-11-06T03:08:49;4.00;;;1.80;;
17696;SDS011;8967;47.984;7.842;2022-11-06T03:11:20;1.90;;;1.57;;
17696;SDS011;8967;47.984;7.842;2022-11-06T03:13:55;2.10;;;1.60;;
17696;SDS011;8967;47.984;7.842;2022-11-06T03:16:31;1.80;;;1.70;;
17696;SDS011;8967;47.984;7.842;2022-11-06T03:19:05;2.07;;;1.87;;
17696;SDS011;8967;47.984;7.842;2022-11-06T03:21:37;1.80;;;1.33;;
17696;SDS011;8967;47.984;7.842;2022-11-06T03:24:17;7.97;;;2.17;;
17696;SDS011;8967;47.984;7.842;2022-11-06T03:26:52;4.30;;;1.80;;
17696;SDS011;8967;47.984;7.842;2022-11-06T03:29:25;3.63;;;1.57;;
17696;SDS011;8967;47.984;7.842;2022-11-06T03:32:04;2.27;;;1.77;;
17696;SDS011;8967;47.984;7.842;2022-11-06T03:34:40;2.50;;;1.83;;
17696;SDS011;8967;47.984;7.842;2022-11-06T03:37:11;3.80;;;1.60;;
17696;SDS011;8967;47.984;7.842;2022-11-06T03:39:45;2.40;;;1.60;;
17696;SDS011;8967;47.984;7.842;2022-11-06T03:42:16;4.57;;;1.43;;
17696;SDS011;8967;47.984;7.842;2022-11-06T03:44:48;2.40;;;1.50;;
17696;SDS011;8967;47.984;7.842;2022-11-06T03:47:21;3.30;;;1.63;;
17696;SDS011;8967;47.984;7.842;2022-11-06T03:49:55;1.83;;;1.73;;
17696;SDS011;8967;47.984;7.842;2022-11-06T03:52:27;2.37;;;1.80;;
17696;SDS011;8967;47.984;7.842;2022-11-06T03:54:59;2.40;;;1.57;;
17696;SDS011;8967;47.984;7.842;2022-11-06T03:57:30;3.50;;;1.63;;
17696;SDS011;8967;47.984;7.842;2022-11-06T04:00:07;2.17;;;1.70;;
17696;SDS011;8967;47.984;7.842;2022-11-06T04:02:38;2.83;;;1.60;;
17696;SDS011;8967;47.984;7.842;2022-11-06T04:05:09;3.80;;;1.63;;
17696;SDS011;8967;47.984;7.842;2022-11-06T04:07:42;1.90;;;1.20;;
17696;SDS011;8967;47.984;7.842;2022-11-06T04:10:32;5.77;;;1.83;;
17696;SDS011;8967;47.984;7.842;2022-11-06T04:13:18;2.83;;;1.50;;
17696;SDS011;8967;47.984;7.842;2022-11-06T04:16:05;5.83;;;1.50;;
17696;SDS011;8967;47.984;7.842;2022-11-06T04:18:34;1.80;;;1.30;;
17696;SDS011;8967;47.984;7.842;2022-11-06T04:21:03;2.17;;;1.47;;
17696;SDS011;8967;47.984;7.842;2022-11-06T04:23:58;1.80;;;1.53;;
17696;SDS011;8967;47.984;7.842;2022-11-06T04:26:51;2.37;;;1.73;;
17696;SDS011;8967;47.984;7.842;2022-11-06T04:29:28;3.13;;;1.40;;
17696;SDS011;8967;47.984;7.842;2022-11-06T04:32:07;2.70;;;1.40;;
17696;SDS011;8967;47.984;7.842;2022-11-06T04:34:40;2.63;;;1.30;;
17696;SDS011;8967;47.984;7.842;2022-11-06T04:37:13;1.20;;;1.10;;
17696;SDS011;8967;47.984;7.842;2022-11-06T04:39:48;2.17;;;1.40;;
17696;SDS011;8967;47.984;7.842;2022-11-06T04:42:23;2.47;;;1.50;;
17696;SDS011;8967;47.984;7.842;2022-11-06T04:44:56;1.70;;;1.43;;
17696;SDS011;8967;47.984;7.842;2022-11-06T04:47:29;1.77;;;1.33;;
17696;SDS011;8967;47.984;7.842;2022-11-06T04:49:57;2.10;;;1.10;;
17696;SDS011;8967;47.984;7.842;2022-11-06T04:52:29;1.93;;;1.40;;
17696;SDS011;8967;47.984;7.842;2022-11-06T04:54:57;3.00;;;1.40;;
17696;SDS011;8967;47.984;7.842;2022-11-06T04:57:24;2.57;;;1.33;;
17696;SDS011;8967;47.984;7.842;2022-11-06T04:59:54;2.03;;;1.47;;
17696;SDS011;8967;47.984;7.842;2022-11-06T05:02:21;4.23;;;1.77;;
17696;SDS011;8967;47.984;7.842;2022-11-06T05:04:50;9.37;;;1.90;;
17696;SDS011;8967;47.984;7.842;2022-11-06T05:07:17;4.03;;;1.67;;
17696;SDS011;8967;47.984;7.842;2022-11-06T05:09:43;3.43;;;1.43;;
17696;SDS011;8967;47.984;7.842;2022-11-06T05:12:10;1.77;;;1.20;;
17696;SDS011;8967;47.984;7.842;2022-11-06T05:14:37;1.53;;;1.30;;
17696;SDS011;8967;47.984;7.842;2022-11-06T05:17:04;4.47;;;1.27;;
17696;SDS011;8967;47.984;7.842;2022-11-06T05:19:31;3.50;;;1.20;;
17696;SDS011;8967;47.984;7.842;2022-11-06T05:21:59;4.80;;;1.30;;
17696;SDS011;8967;47.984;7.842;2022-11-06T05:24:44;1.83;;;1.40;;
17696;SDS011;8967;47.984;7.842;2022-11-06T05:27:11;3.57;;;1.33;;
17696;SDS011;8967;47.984;7.842;2022-11-06T05:29:38;5.10;;;2.50;;
17696;SDS011;8967;47.984;7.842;2022-11-06T05:32:05;1.73;;;1.40;;
17696;SDS011;8967;47.984;7.842;2022-11-06T05:34:32;3.17;;;1.40;;
17696;SDS011;8967;47.984;7.842;2022-11-06T05:37:02;1.70;;;1.60;;
17696;SDS011;8967;47.984;7.842;2022-11-06T05:39:29;5.40;;;1.50;;
17696;SDS011;8967;47.984;7.842;2022-11-06T05:41:56;4.50;;;1.60;;
17696;SDS011;8967;47.984;7.842;2022-11-06T05:44:23;2.10;;;1.40;;
17696;SDS011;8967;47.984;7.842;2022-11-06T05:46:50;1.53;;;1.40;;
17696;SDS011;8967;47.984;7.842;2022-11-06T05:49:19;4.07;;;1.53;;
17696;SDS011;8967;47.984;7.842;2022-11-06T05:51:46;3.13;;;1.70;;
17696;SDS011;8967;47.984;7.842;2022-11-06T05:54:14;1.90;;;1.47;;
17696;SDS011;8967;47.984;7.842;2022-11-06T05:56:41;1.80;;;1.70;;
17696;SDS011;8967;47.984;7.842;2022-11-06T05:59:08;7.50;;;1.50;;
17696;SDS011;8967;47.984;7.842;2022-11-06T06:01:35;2.17;;;1.53;;
17696;SDS011;8967;47.984;7.842;2022-11-06T06:04:02;1.97;;;1.50;;
17696;SDS011;8967;47.984;7.842;2022-11-06T06:06:29;4.13;;;1.20;;
17696;SDS011;8967;47.984;7.842;2022-11-06T06:08:56;5.10;;;1.47;;
17696;SDS011;8967;47.984;7.842;2022-11-06T06:11:25;1.40;;;1.20;;
17696;SDS011;8967;47.984;7.842;2022-11-06T06:13:51;1.27;;;1.17;;
17696;SDS011;8967;47.984;7.842;2022-11-06T06:16:18;3.20;;;1.20;;
17696;SDS011;8967;47.984;7.842;2022-11-06T06:18:47;2.17;;;1.43;;
17696;SDS011;8967;47.984;7.842;2022-11-06T06:21:14;1.20;;;1.10;;
17696;SDS011;8967;47.984;7.842;2022-11-06T06:23:41;2.20;;;1.33;;
17696;SDS011;8967;47.984;7.842;2022-11-06T06:26:08;1.37;;;1.27;;
17696;SDS011;8967;47.984;7.842;2022-11-06T06:28:37;1.50;;;1.40;;
17696;SDS011;8967;47.984;7.842;2022-11-06T06:31:04;1.90;;;1.40;;
17696;SDS011;8967;47.984;7.842;2022-11-06T06:33:32;1.40;;;1.30;;
17696;SDS011;8967;47.984;7.842;2022-11-06T06:36:01;4.67;;;1.70;;
17696;SDS011;8967;47.984;7.842;2022-11-06T06:38:29;2.67;;;1.77;;
17696;SDS011;8967;47.984;7.842;2022-11-06T06:40:58;5.40;;;1.87;;
17696;SDS011;8967;47.984;7.842;2022-11-06T06:43:26;2.93;;;1.83;;
17696;SDS011;8967;47.984;7.842;2022-11-06T06:45:54;3.90;;;1.70;;
17696;SDS011;8967;47.984;7.842;2022-11-06T06:48:25;3.93;;;2.10;;
17696;SDS011;8967;47.984;7.842;2022-11-06T06:50:55;2.90;;;2.00;;
17696;SDS011;8967;47.984;7.842;2022-11-06T06:53:22;3.27;;;2.00;;
17696;SDS011;8967;47.984;7.842;2022-11-06T06:55:49;2.47;;;2.00;;
17696;SDS011;8967;47.984;7.842;2022-11-06T06:58:18;2.87;;;2.27;;
17696;SDS011;8967;47.984;7.842;2022-11-06T07:00:45;3.27;;;2.40;;
17696;SDS011;8967;47.984;7.842;2022-11-06T07:03:14;4.30;;;2.03;;
17696;SDS011;8967;47.984;7.842;2022-11-06T07:05:41;5.67;;;2.20;;
17696;SDS011;8967;47.984;7.842;2022-11-06T07:08:08;2.27;;;1.90;;
17696;SDS011;8967;47.984;7.842;2022-11-06T07:10:35;7.53;;;2.20;;
17696;SDS011;8967;47.984;7.842;2022-11-06T07:13:02;3.23;;;1.80;;
17696;SDS011;8967;47.984;7.842;2022-11-06T07:15:32;5.07;;;1.53;;
17696;SDS011;8967;47.984;7.842;2022-11-06T07:18:02;2.30;;;1.80;;
17696;SDS011;8967;47.984;7.842;2022-11-06T07:20:33;2.57;;;1.93;;
17696;SDS011;8967;47.984;7.842;2022-11-06T07:23:03;5.20;;;2.80;;
17696;SDS011;8967;47.984;7.842;2022-11-06T07:25:30;3.23;;;2.60;;
17696;SDS011;8967;47.984;7.842;2022-11-06T07:27:58;6.13;;;3.30;;
17696;SDS011;8967;47.984;7.842;2022-11-06T07:30:26;5.83;;;3.97;;
17696;SDS011;8967;47.984;7.842;2022-11-06T07:32:53;6.40;;;3.83;;
17696;SDS011;8967;47.984;7.842;2022-11-06T07:35:20;10.40;;;5.63;;
17696;SDS011;8967;47.984;7.842;2022-11-06T07:37:48;6.40;;;3.60;;
17696;SDS011;8967;47.984;7.842;2022-11-06T07:40:15;6.63;;;3.17;;
17696;SDS011;8967;47.984;7.842;2022-11-06T07:42:42;4.87;;;2.90;;
17696;SDS011;8967;47.984;7.842;2022-11-06T07:45:13;7.17;;;4.30;;
17696;SDS011;8967;47.984;7.842;2022-11-06T07:47:43;8.87;;;4.33;;
17696;SDS011;8967;47.984;7.842;2022-11-06T07:50:09;8.83;;;4.47;;
17696;SDS011;8967;47.984;7.842;2022-11-06T07:52:36;4.73;;;4.10;;
17696;SDS011;8967;47.984;7.842;2022-11-06T07:55:05;7.07;;;4.50;;
17696;SDS011;8967;47.984;7.842;2022-11-06T07:57:34;7.10;;;4.13;;
17696;SDS011;8967;47.984;7.842;2022-11-06T08:00:03;7.60;;;4.30;;
17696;SDS011;8967;47.984;7.842;2022-11-06T08:02:37;6.53;;;4.60;;
17696;SDS011;8967;47.984;7.842;2022-11-06T08:05:04;6.77;;;3.77;;
17696;SDS011;8967;47.984;7.842;2022-11-06T08:07:32;7.43;;;4.30;;
17696;SDS011;8967;47.984;7.842;2022-11-06T08:09:59;7.27;;;4.60;;
17696;SDS011;8967;47.984;7.842;2022-11-06T08:12:27;7.80;;;4.73;;
17696;SDS011;8967;47.984;7.842;2022-11-06T08:14:54;7.43;;;5.23;;
17696;SDS011;8967;47.984;7.842;2022-11-06T08:17:21;6.70;;;5.07;;
17696;SDS011;8967;47.984;7.842;2022-11-06T08:19:48;5.63;;;4.47;;
17696;SDS011;8967;47.984;7.842;2022-11-06T08:22:17;8.77;;;4.40;;
17696;SDS011;8967;47.984;7.842;2022-11-06T08:24:44;9.07;;;5.10;;
17696;SDS011;8967;47.984;7.842;2022-11-06T08:27:11;10.00;;;5.43;;
17696;SDS011;8967;47.984;7.842;2022-11-06T08:29:39;10.07;;;5.40;;
17696;SDS011;8967;47.984;7.842;2022-11-06T08:32:06;7.93;;;5.50;;
17696;SDS011;8967;47.984;7.842;2022-11-06T08:34:35;6.10;;;4.60;;
17696;SDS011;8967;47.984;7.842;2022-11-06T08:37:02;7.30;;;5.20;;
17696;SDS011;8967;47.984;7.842;2022-11-06T08:39:29;6.83;;;5.10;;
17696;SDS011;8967;47.984;7.842;2022-11-06T08:41:56;6.60;;;5.00;;
17696;SDS011;8967;47.984;7.842;2022-11-06T08:44:23;7.97;;;5.30;;
17696;SDS011;8967;47.984;7.842;2022-11-06T08:46:54;12.13;;;5.20;;
17696;SDS011;8967;47.984;7.842;2022-11-06T08:49:23;9.13;;;5.60;;
17696;SDS011;8967;47.984;7.842;2022-11-06T08:51:50;9.20;;;5.20;;
17696;SDS011;8967;47.984;7.842;2022-11-06T08:54:18;6.17;;;4.60;;
17696;SDS011;8967;47.984;7.842;2022-11-06T08:56:44;8.10;;;4.77;;
17696;SDS011;8967;47.984;7.842;2022-11-06T08:59:11;8.07;;;5.03;;
17696;SDS011;8967;47.984;7.842;2022-11-06T09:01:38;7.40;;;4.50;;
17696;SDS011;8967;47.984;7.842;2022-11-06T09:04:07;5.95;;;4.72;;
17696;SDS011;8967;47.984;7.842;2022-11-06T09:06:33;9.63;;;5.17;;
17696;SDS011;8967;47.984;7.842;2022-11-06T09:09:03;11.07;;;6.68;;
17696;SDS011;8967;47.984;7.842;2022-11-06T09:11:30;12.73;;;7.63;;
17696;SDS011;8967;47.984;7.842;2022-11-06T09:14:00;13.70;;;7.03;;
17696;SDS011;8967;47.984;7.842;2022-11-06T09:16:27;11.50;;;5.57;;
17696;SDS011;8967;47.984;7.842;2022-11-06T09:18:54;9.80;;;6.10;;
17696;SDS011;8967;47.984;7.842;2022-11-06T09:21:22;9.47;;;4.87;;
17696;SDS011;8967;47.984;7.842;2022-11-06T09:23:49;6.83;;;4.93;;
17696;SDS011;8967;47.984;7.842;2022-11-06T09:26:18;8.97;;;5.30;;
17696;SDS011;8967;47.984;7.842;2022-11-06T09:28:45;6.10;;;4.07;;
17696;SDS011;8967;47.984;7.842;2022-11-06T09:31:12;5.30;;;4.17;;
17696;SDS011;8967;47.984;7.842;2022-11-06T09:33:39;7.37;;;3.93;;
17696;SDS011;8967;47.984;7.842;2022-11-06T09:36:06;9.77;;;4.47;;
17696;SDS011;8967;47.984;7.842;2022-11-06T09:38:35;9.73;;;4.10;;
17696;SDS011;8967;47.984;7.842;2022-11-06T09:41:02;5.70;;;3.33;;
17696;SDS011;8967;47.984;7.842;2022-11-06T09:43:32;5.90;;;2.60;;
17696;SDS011;8967;47.984;7.842;2022-11-06T09:46:15;6.43;;;3.37;;
17696;SDS011;8967;47.984;7.842;2022-11-06T09:48:47;2.10;;;1.90;;
17696;SDS011;8967;47.984;7.842;2022-11-06T09:51:19;3.60;;;2.07;;
17696;SDS011;8967;47.984;7.842;2022-11-06T09:53:55;3.00;;;1.80;;
17696;SDS011;8967;47.984;7.842;2022-11-06T09:56:32;1.70;;;1.60;;
17696;SDS011;8967;47.984;7.842;2022-11-06T09:59:03;4.60;;;1.70;;
17696;SDS011;8967;47.984;7.842;2022-11-06T10:01:37;6.38;;;2.80;;
17696;SDS011;8967;47.984;7.842;2022-11-06T10:04:11;7.68;;;2.92;;
17696;SDS011;8967;47.984;7.842;2022-11-06T10:06:56;3.67;;;2.65;;
17696;SDS011;8967;47.984;7.842;2022-11-06T10:09:24;4.13;;;2.97;;
17696;SDS011;8967;47.984;7.842;2022-11-06T10:11:54;4.90;;;2.85;;
17696;SDS011;8967;47.984;7.842;2022-11-06T10:14:38;4.05;;;2.95;;
17696;SDS011;8967;47.984;7.842;2022-11-06T10:17:17;4.18;;;2.35;;
17696;SDS011;8967;47.984;7.842;2022-11-06T10:19:53;3.60;;;2.42;;
17696;SDS011;8967;47.984;7.842;2022-11-06T10:22:27;4.07;;;2.60;;
17696;SDS011;8967;47.984;7.842;2022-11-06T10:25:06;5.60;;;3.00;;
17696;SDS011;8967;47.984;7.842;2022-11-06T10:27:45;6.70;;;4.07;;
17696;SDS011;8967;47.984;7.842;2022-11-06T10:30:23;7.53;;;4.13;;
17696;SDS011;8967;47.984;7.842;2022-11-06T10:32:58;4.45;;;3.42;;
17696;SDS011;8967;47.984;7.842;2022-11-06T10:35:41;7.88;;;4.50;;
17696;SDS011;8967;47.984;7.842;2022-11-06T10:38:12;7.05;;;3.88;;
17696;SDS011;8967;47.984;7.842;2022-11-06T10:40:42;8.43;;;4.22;;
17696;SDS011;8967;47.984;7.842;2022-11-06T10:43:18;4.70;;;3.72;;
17696;SDS011;8967;47.984;7.842;2022-11-06T10:45:52;4.70;;;3.65;;
17696;SDS011;8967;47.984;7.842;2022-11-06T10:48:25;6.18;;;3.80;;
17696;SDS011;8967;47.984;7.842;2022-11-06T10:50:57;4.43;;;3.28;;
17696;SDS011;8967;47.984;7.842;2022-11-06T10:53:34;5.15;;;3.40;;
17696;SDS011;8967;47.984;7.842;2022-11-06T10:59:06;5.15;;;3.40;;
17696;SDS011;8967;47.984;7.842;2022-11-06T11:01:33;6.07;;;3.53;;
17696;SDS011;8967;47.984;7.842;2022-11-06T11:04:01;6.07;;;3.38;;
17696;SDS011;8967;47.984;7.842;2022-11-06T11:06:28;4.43;;;2.97;;
17696;SDS011;8967;47.984;7.842;2022-11-06T11:08:54;5.72;;;3.78;;
17696;SDS011;8967;47.984;7.842;2022-11-06T11:11:22;5.13;;;4.00;;
17696;SDS011;8967;47.984;7.842;2022-11-06T11:14:11;6.40;;;3.97;;
17696;SDS011;8967;47.984;7.842;2022-11-06T11:16:41;5.18;;;3.50;;
17696;SDS011;8967;47.984;7.842;2022-11-06T11:19:13;6.40;;;3.75;;
17696;SDS011;8967;47.984;7.842;2022-11-06T11:21:51;5.72;;;3.40;;
17696;SDS011;8967;47.984;7.842;2022-11-06T11:24:19;5.78;;;3.70;;
17696;SDS011;8967;47.984;7.842;2022-11-06T11:26:46;3.58;;;2.92;;
17696;SDS011;8967;47.984;7.842;2022-11-06T11:29:19;5.43;;;3.95;;
17696;SDS011;8967;47.984;7.842;2022-11-06T11:31:52;5.20;;;3.92;;
17696;SDS011;8967;47.984;7.842;2022-11-06T11:34:22;5.70;;;3.83;;
17696;SDS011;8967;47.984;7.842;2022-11-06T11:36:55;4.03;;;3.45;;
17696;SDS011;8967;47.984;7.842;2022-11-06T11:39:25;6.63;;;3.95;;
17696;SDS011;8967;47.984;7.842;2022-11-06T11:47:40;5.82;;;4.32;;
17696;SDS011;8967;47.984;7.842;2022-11-06T11:50:17;4.07;;;3.45;;
17696;SDS011;8967;47.984;7.842;2022-11-06T11:53:00;6.65;;;3.67;;
17696;SDS011;8967;47.984;7.842;2022-11-06T11:55:35;6.32;;;4.13;;
17696;SDS011;8967;47.984;7.842;2022-11-06T11:58:14;11.02;;;4.45;;
17696;SDS011;8967;47.984;7.842;2022-11-06T12:00:51;5.78;;;3.88;;
17696;SDS011;8967;47.984;7.842;2022-11-06T12:03:21;5.72;;;3.78;;
17696;SDS011;8967;47.984;7.842;2022-11-06T12:05:50;5.82;;;3.90;;
17696;SDS011;8967;47.984;7.842;2022-11-06T12:08:20;5.82;;;3.58;;
17696;SDS011;8967;47.984;7.842;2022-11-06T12:10:50;5.60;;;4.03;;
17696;SDS011;8967;47.984;7.842;2022-11-06T12:13:18;5.78;;;4.22;;
17696;SDS011;8967;47.984;7.842;2022-11-06T12:15:48;7.60;;;4.65;;
17696;SDS011;8967;47.984;7.842;2022-11-06T12:18:21;8.57;;;4.63;;
17696;SDS011;8967;47.984;7.842;2022-11-06T12:20:53;5.85;;;4.43;;
17696;SDS011;8967;47.984;7.842;2022-11-06T12:23:27;8.07;;;5.18;;
17696;SDS011;8967;47.984;7.842;2022-11-06T12:26:00;6.22;;;4.53;;
17696;SDS011;8967;47.984;7.842;2022-11-06T12:28:33;6.65;;;4.85;;
17696;SDS011;8967;47.984;7.842;2022-11-06T12:31:04;5.90;;;4.47;;
17696;SDS011;8967;47.984;7.842;2022-11-06T12:33:39;6.85;;;4.78;;
17696;SDS011;8967;47.984;7.842;2022-11-06T12:36:09;6.40;;;4.72;;
17696;SDS011;8967;47.984;7.842;2022-11-06T12:38:43;6.32;;;4.18;;
17696;SDS011;8967;47.984;7.842;2022-11-06T12:41:18;6.60;;;4.93;;
17696;SDS011;8967;47.984;7.842;2022-11-06T12:43:50;6.07;;;3.97;;
17696;SDS011;8967;47.984;7.842;2022-11-06T12:46:37;6.35;;;4.30;;
17696;SDS011;8967;47.984;7.842;2022-11-06T12:52:17;7.40;;;5.05;;
17696;SDS011;8967;47.984;7.842;2022-11-06T12:55:00;7.95;;;4.80;;
17696;SDS011;8967;47.984;7.842;2022-11-06T12:57:37;8.07;;;5.45;;
17696;SDS011;8967;47.984;7.842;2022-11-06T13:00:13;8.75;;;4.90;;
17696;SDS011;8967;47.984;7.842;2022-11-06T13:02:57;6.10;;;4.50;;
17696;SDS011;8967;47.984;7.842;2022-11-06T13:05:37;6.72;;;4.18;;
17696;SDS011;8967;47.984;7.842;2022-11-06T13:08:13;6.50;;;4.50;;
17696;SDS011;8967;47.984;7.842;2022-11-06T13:10:49;7.40;;;5.05;;
17696;SDS011;8967;47.984;7.842;2022-11-06T13:16:13;7.05;;;4.38;;
17696;SDS011;8967;47.984;7.842;2022-11-06T13:18:48;6.10;;;4.68;;
17696;SDS011;8967;47.984;7.842;2022-11-06T13:21:19;6.60;;;4.50;;
17696;SDS011;8967;47.984;7.842;2022-11-06T13:23:54;6.88;;;4.75;;
17696;SDS011;8967;47.984;7.842;2022-11-06T13:26:26;8.18;;;4.93;;
17696;SDS011;8967;47.984;7.842;2022-11-06T13:28:58;6.53;;;4.50;;
17696;SDS011;8967;47.984;7.842;2022-11-06T13:31:29;10.07;;;4.95;;
17696;SDS011;8967;47.984;7.842;2022-11-06T13:34:05;11.57;;;5.40;;
17696;SDS011;8967;47.984;7.842;2022-11-06T13:36:35;10.40;;;5.00;;
17696;SDS011;8967;47.984;7.842;2022-11-06T13:39:04;8.70;;;5.38;;
17696;SDS011;8967;47.984;7.842;2022-11-06T13:41:37;6.47;;;4.70;;
17696;SDS011;8967;47.984;7.842;2022-11-06T13:44:04;9.32;;;5.00;;
17696;SDS011;8967;47.984;7.842;2022-11-06T13:46:35;7.10;;;5.03;;
17696;SDS011;8967;47.984;7.842;2022-11-06T13:49:08;7.53;;;4.30;;
17696;SDS011;8967;47.984;7.842;2022-11-06T13:51:45;9.57;;;4.78;;
17696;SDS011;8967;47.984;7.842;2022-11-06T13:54:27;9.10;;;4.68;;
17696;SDS011;8967;47.984;7.842;2022-11-06T13:57:10;8.20;;;4.57;;
17696;SDS011;8967;47.984;7.842;2022-11-06T14:00:09;9.73;;;4.78;;
17696;SDS011;8967;47.984;7.842;2022-11-06T14:02:52;5.97;;;4.05;;
17696;SDS011;8967;47.984;7.842;2022-11-06T14:05:56;5.78;;;4.18;;
17696;SDS011;8967;47.984;7.842;2022-11-06T14:08:27;4.93;;;4.10;;
17696;SDS011;8967;47.984;7.842;2022-11-06T14:10:59;5.63;;;4.13;;
17696;SDS011;8967;47.984;7.842;2022-11-06T14:13:30;8.02;;;3.88;;
17696;SDS011;8967;47.984;7.842;2022-11-06T14:16:00;5.75;;;4.15;;
17696;SDS011;8967;47.984;7.842;2022-11-06T14:18:29;5.32;;;3.83;;
17696;SDS011;8967;47.984;7.842;2022-11-06T14:24:13;4.63;;;4.00;;
17696;SDS011;8967;47.984;7.842;2022-11-06T14:26:55;7.22;;;4.18;;
17696;SDS011;8967;47.984;7.842;2022-11-06T14:32:36;5.55;;;4.20;;
17696;SDS011;8967;47.984;7.842;2022-11-06T14:38:17;5.97;;;4.43;;
17696;SDS011;8967;47.984;7.842;2022-11-06T14:44:22;4.55;;;3.90;;
17696;SDS011;8967;47.984;7.842;2022-11-06T14:47:04;6.78;;;4.30;;
17696;SDS011;8967;47.984;7.842;2022-11-06T14:49:48;5.75;;;4.30;;
17696;SDS011;8967;47.984;7.842;2022-11-06T14:52:17;7.93;;;4.72;;
17696;SDS011;8967;47.984;7.842;2022-11-06T14:54:50;8.80;;;4.95;;
17696;SDS011;8967;47.984;7.842;2022-11-06T14:57:35;7.38;;;4.80;;
17696;SDS011;8967;47.984;7.842;2022-11-06T15:00:10;5.35;;;4.28;;
17696;SDS011;8967;47.984;7.842;2022-11-06T15:02:40;10.73;;;5.57;;
17696;SDS011;8967;47.984;7.842;2022-11-06T15:05:12;9.43;;;5.00;;
17696;SDS011;8967;47.984;7.842;2022-11-06T15:07:52;7.60;;;5.28;;
17696;SDS011;8967;47.984;7.842;2022-11-06T15:13:25;7.20;;;5.05;;
17696;SDS011;8967;47.984;7.842;2022-11-06T15:16:02;9.43;;;4.75;;
17696;SDS011;8967;47.984;7.842;2022-11-06T15:18:35;8.30;;;4.43;;
17696;SDS011;8967;47.984;7.842;2022-11-06T15:21:04;9.68;;;4.97;;
17696;SDS011;8967;47.984;7.842;2022-11-06T15:23:37;5.43;;;4.05;;
17696;SDS011;8967;47.984;7.842;2022-11-06T15:26:14;6.13;;;3.53;;
17696;SDS011;8967;47.984;7.842;2022-11-06T15:28:50;10.57;;;4.38;;
17696;SDS011;8967;47.984;7.842;2022-11-06T15:31:28;4.88;;;3.60;;
17696;SDS011;8967;47.984;7.842;2022-11-06T15:33:57;5.43;;;3.85;;
17696;SDS011;8967;47.984;7.842;2022-11-06T15:36:27;6.55;;;4.07;;
17696;SDS011;8967;47.984;7.842;2022-11-06T15:38:57;4.65;;;3.10;;
17696;SDS011;8967;47.984;7.842;2022-11-06T15:41:26;6.25;;;3.53;;
17696;SDS011;8967;47.984;7.842;2022-11-06T15:43:53;5.20;;;3.75;;
17696;SDS011;8967;47.984;7.842;2022-11-06T15:46:22;6.47;;;4.20;;
17696;SDS011;8967;47.984;7.842;2022-11-06T15:49:06;5.32;;;3.72;;
17696;SDS011;8967;47.984;7.842;2022-11-06T15:51:40;5.50;;;3.55;;
17696;SDS011;8967;47.984;7.842;2022-11-06T15:54:28;5.25;;;3.58;;
17696;SDS011;8967;47.984;7.842;2022-11-06T15:56:57;6.53;;;3.90;;
17696;SDS011;8967;47.984;7.842;2022-11-06T15:59:27;4.50;;;3.13;;